createdAt,value
2022-09-22T00:01:08.083Z,100151.22
2022-09-22T00:02:05.121Z,100160.84
2022-09-22T00:03:02.207Z,100156.44
2022-09-22T00:04:04.082Z,100155.59
2022-09-22T00:05:01.394Z,100155.56
2022-09-22T00:06:00.668Z,100156.41
2022-09-22T00:06:57.961Z,100152.03
2022-09-22T00:07:55.015Z,100157.28
2022-09-22T00:08:56.489Z,100161.66
2022-09-22T00:09:53.757Z,100159.00
2022-09-22T00:10:59.975Z,100159.00
2022-09-22T00:11:57.011Z,100156.38
2022-09-22T00:12:54.873Z,100155.47
2022-09-22T00:13:53.632Z,100160.78
2022-09-22T00:14:51.220Z,100171.25
2022-09-22T00:15:48.318Z,100159.00
2022-09-22T00:16:47.574Z,100159.88
2022-09-22T00:17:44.750Z,100158.13
2022-09-22T00:18:41.735Z,100151.09
2022-09-22T00:19:39.482Z,100157.25
2022-09-22T00:20:39.340Z,100159.88
2022-09-22T00:21:36.700Z,100160.75
2022-09-22T00:22:33.727Z,100157.25
2022-09-22T00:23:31.981Z,100161.56
2022-09-22T00:24:28.935Z,100154.56
2022-09-22T00:25:26.516Z,100159.84
2022-09-22T00:26:24.118Z,100150.22
2022-09-22T00:27:21.004Z,100158.94
2022-09-22T00:28:18.300Z,100158.94
2022-09-22T00:29:15.842Z,100152.81
2022-09-22T00:30:13.589Z,100150.16
2022-09-22T00:31:18.084Z,100152.78
2022-09-22T00:32:15.113Z,100154.53
2022-09-22T00:33:12.104Z,100155.41
2022-09-22T00:34:11.680Z,100151.03
2022-09-22T00:35:08.963Z,100152.75
2022-09-22T00:36:06.065Z,100148.34
2022-09-22T00:37:03.116Z,100150.13
2022-09-22T00:38:02.984Z,100158.84
2022-09-22T00:39:00.295Z,100147.47
2022-09-22T00:39:57.528Z,100153.56
2022-09-22T00:40:54.742Z,100155.31
2022-09-22T00:41:52.409Z,100149.19
2022-09-22T00:42:49.773Z,100157.06
2022-09-22T00:43:51.497Z,100148.28
2022-09-22T00:44:54.514Z,100144.75
2022-09-22T00:46:19.404Z,100155.25
2022-09-22T00:47:19.162Z,100155.19
2022-09-22T00:48:16.436Z,100147.22
2022-09-22T00:49:13.324Z,100151.59
2022-09-22T00:50:16.611Z,100150.66
2022-09-22T00:51:14.457Z,100153.31
2022-09-22T00:52:11.840Z,100152.41
2022-09-22T00:53:13.860Z,100146.31
2022-09-22T00:54:13.627Z,100146.28
2022-09-22T00:55:21.174Z,100143.69
2022-09-22T00:56:22.721Z,100148.06
2022-09-22T00:57:22.401Z,100140.16
2022-09-22T00:58:21.093Z,100148.03
2022-09-22T00:59:19.167Z,100141.94
2022-09-22T01:00:16.174Z,100127.03
2022-09-22T01:01:15.263Z,100140.16
2022-09-22T01:02:12.387Z,100142.81
2022-09-22T01:03:13.005Z,100145.44
2022-09-22T01:04:10.255Z,100136.69
2022-09-22T01:05:08.101Z,100133.19
2022-09-22T01:06:06.469Z,100128.88
2022-09-22T01:07:03.731Z,100129.72
2022-09-22T01:08:01.472Z,100131.50
2022-09-22T01:08:58.495Z,100134.13
2022-09-22T01:09:56.276Z,100134.19
2022-09-22T01:10:53.918Z,100133.34
2022-09-22T01:11:51.116Z,100127.19
2022-09-22T01:13:02.026Z,100126.34
2022-09-22T01:14:07.664Z,100129.88
2022-09-22T01:15:13.592Z,100129.88
2022-09-22T01:16:25.316Z,100119.41
2022-09-22T01:17:41.104Z,100128.09
2022-09-22T01:19:00.616Z,100128.91
2022-09-22T01:20:10.796Z,100127.97
2022-09-22T01:21:19.909Z,100120.97
2022-09-22T01:22:29.429Z,100127.06
2022-09-22T01:23:50.715Z,100123.53
2022-09-22T01:24:59.447Z,100119.19
2022-09-22T01:26:19.054Z,100116.50
2022-09-22T01:27:24.180Z,100115.59
2022-09-22T01:28:32.209Z,100117.34
2022-09-22T01:30:07.562Z,100117.31
2022-09-22T01:31:07.631Z,100115.56
2022-09-22T01:32:31.950Z,100113.81
2022-09-22T01:33:42.437Z,100114.66
2022-09-22T01:34:49.662Z,100103.28
2022-09-22T01:35:58.999Z,100112.91
2022-09-22T01:37:17.736Z,100104.19
2022-09-22T01:38:24.920Z,100115.50
2022-09-22T01:39:23.387Z,100111.19
2022-09-22T01:40:35.787Z,100104.19
2022-09-22T01:41:55.263Z,100116.38
2022-09-22T01:42:55.085Z,100111.13
2022-09-22T01:43:57.160Z,100112.84
2022-09-22T01:45:32.534Z,100109.31
2022-09-22T01:46:34.447Z,100099.69
2022-09-22T01:47:41.559Z,100105.81
2022-09-22T01:48:40.347Z,100105.81
2022-09-22T01:49:39.445Z,100106.72
2022-09-22T01:50:40.148Z,100106.69
2022-09-22T01:51:37.082Z,100110.19
2022-09-22T01:52:34.634Z,100097.91
2022-09-22T01:53:34.365Z,100103.16
2022-09-22T01:54:41.209Z,100104.91
2022-09-22T01:55:39.792Z,100099.66
2022-09-22T01:56:40.193Z,100108.38
2022-09-22T01:57:48.587Z,100096.13
2022-09-22T01:58:47.542Z,100104.00
2022-09-22T01:59:46.161Z,100100.47
2022-09-22T02:00:50.177Z,100097.91
2022-09-22T02:03:57.730Z,100097.00
2022-09-22T02:04:56.816Z,100092.63
2022-09-22T02:05:59.863Z,100093.50
2022-09-22T02:07:08.326Z,100090.00
2022-09-22T02:08:10.052Z,100081.28
2022-09-22T02:09:09.567Z,100090.94
2022-09-22T02:10:09.183Z,100090.03
2022-09-22T02:11:13.967Z,100083.94
2022-09-22T02:12:10.851Z,100076.88
2022-09-22T02:13:07.874Z,100082.16
2022-09-22T02:14:04.792Z,100085.63
2022-09-22T02:15:02.104Z,100085.69
2022-09-22T02:16:02.203Z,100079.63
2022-09-22T02:16:59.916Z,100091.91
2022-09-22T02:17:59.151Z,100074.50
2022-09-22T02:19:16.481Z,100086.72
2022-09-22T02:20:13.520Z,100079.72
2022-09-22T02:21:10.905Z,100078.88
2022-09-22T02:22:08.582Z,100078.06
2022-09-22T02:23:05.543Z,100082.41
2022-09-22T02:24:02.736Z,100078.06
2022-09-22T02:24:59.773Z,100083.28
2022-09-22T02:25:56.993Z,100070.19
2022-09-22T02:26:54.130Z,100071.03
2022-09-22T02:27:52.238Z,100071.94
2022-09-22T02:28:49.272Z,100078.06
2022-09-22T02:29:49.339Z,100088.53
2022-09-22T02:30:59.093Z,100078.03
2022-09-22T02:32:06.444Z,100080.63
2022-09-22T02:33:03.300Z,100080.63
2022-09-22T02:34:00.528Z,100069.22
2022-09-22T02:34:57.566Z,100078.81
2022-09-22T02:36:32.958Z,100076.19
2022-09-22T02:37:55.808Z,100076.13
2022-09-22T02:39:03.447Z,100077.84
2022-09-22T02:40:18.259Z,100079.56
2022-09-22T02:42:02.890Z,100078.59
2022-09-22T02:43:12.875Z,100080.31
2022-09-22T02:44:24.359Z,100075.03
2022-09-22T02:45:31.022Z,100067.16
2022-09-22T02:46:32.364Z,100077.63
2022-09-22T02:47:32.583Z,100071.59
2022-09-22T02:48:32.082Z,100069.03
2022-09-22T02:49:28.830Z,100068.31
2022-09-22T02:50:26.705Z,100072.72
2022-09-22T02:51:23.537Z,100071.06
2022-09-22T02:52:21.475Z,100070.25
2022-09-22T02:53:19.002Z,100068.53
2022-09-22T02:54:16.243Z,100063.31
2022-09-22T02:55:16.843Z,100066.78
2022-09-22T02:56:14.166Z,100072.91
2022-09-22T02:57:11.518Z,100065.94
2022-09-22T02:59:34.639Z,100053.66
2022-09-22T03:00:33.136Z,100054.56
2022-09-22T03:01:30.163Z,100056.31
2022-09-22T03:02:27.448Z,100056.31
2022-09-22T03:03:24.636Z,100049.25
2022-09-22T03:04:21.672Z,100059.78
2022-09-22T03:05:18.627Z,100049.28
2022-09-22T03:06:18.524Z,100059.00
2022-09-22T03:07:15.423Z,100053.75
2022-09-22T03:08:12.402Z,100052.91
2022-09-22T03:09:09.362Z,100057.38
2022-09-22T03:10:07.091Z,100055.63
2022-09-22T03:11:04.053Z,100051.28
2022-09-22T03:12:01.233Z,100056.47
2022-09-22T03:13:15.549Z,100051.22
2022-09-22T03:14:13.252Z,100049.47
2022-09-22T03:15:11.189Z,100055.53
2022-09-22T03:16:08.453Z,100052.00
2022-09-22T03:17:05.522Z,100052.03
2022-09-22T03:18:02.410Z,100048.59
2022-09-22T03:18:59.697Z,100052.91
2022-09-22T03:19:56.774Z,100044.19
2022-09-22T03:20:53.768Z,100050.28
2022-09-22T03:21:50.963Z,100042.38
2022-09-22T03:22:48.148Z,100046.81
2022-09-22T03:23:45.040Z,100045.94
2022-09-22T03:24:42.010Z,100044.16
2022-09-22T03:25:39.148Z,100047.69
2022-09-22T03:26:36.194Z,100045.97
2022-09-22T03:27:33.600Z,100044.25
2022-09-22T03:28:30.966Z,100040.78
2022-09-22T03:29:27.910Z,100043.38
2022-09-22T03:30:24.842Z,100042.53
2022-09-22T03:31:21.772Z,100045.16
2022-09-22T03:32:18.823Z,100043.41
2022-09-22T03:33:15.867Z,100042.53
2022-09-22T03:34:12.752Z,100046.88
2022-09-22T03:35:10.076Z,100040.75
2022-09-22T03:36:07.263Z,100041.56
2022-09-22T03:37:06.578Z,100045.00
2022-09-22T03:38:03.423Z,100045.03
2022-09-22T03:39:00.448Z,100038.88
2022-09-22T03:39:57.523Z,100043.34
2022-09-22T03:40:54.480Z,100041.56
2022-09-22T03:41:51.684Z,100038.91
2022-09-22T03:42:48.690Z,100039.81
2022-09-22T03:43:45.886Z,100042.44
2022-09-22T03:44:43.141Z,100039.03
2022-09-22T03:45:40.230Z,100036.41
2022-09-22T03:46:37.384Z,100034.69
2022-09-22T03:47:36.947Z,100037.31
2022-09-22T03:48:33.998Z,100032.94
2022-09-22T03:49:31.487Z,100037.34
2022-09-22T03:50:28.574Z,100028.63
2022-09-22T03:51:25.554Z,100038.22
2022-09-22T03:52:22.904Z,100028.56
2022-09-22T03:53:19.892Z,100024.19
2022-09-22T03:54:19.893Z,100030.28
2022-09-22T03:55:16.839Z,100033.78
2022-09-22T03:56:17.615Z,100031.16
2022-09-22T03:57:14.692Z,100029.44
2022-09-22T03:58:14.022Z,100025.91
2022-09-22T03:59:11.595Z,100035.53
2022-09-22T04:00:09.148Z,100029.41
2022-09-22T04:01:06.229Z,100032.06
2022-09-22T04:02:04.725Z,100023.31
2022-09-22T04:03:01.830Z,100031.19
2022-09-22T04:03:58.794Z,100031.16
2022-09-22T04:04:55.794Z,100025.06
2022-09-22T04:05:53.072Z,100024.19
2022-09-22T04:06:50.531Z,100028.56
2022-09-22T04:07:47.564Z,100025.06
2022-09-22T04:08:44.602Z,100026.00
2022-09-22T04:09:42.171Z,100023.38
2022-09-22T04:10:39.079Z,100019.91
2022-09-22T04:11:36.652Z,100017.31
2022-09-22T04:12:33.606Z,100022.56
2022-09-22T04:13:30.543Z,100013.84
2022-09-22T04:14:27.518Z,100010.31
2022-09-22T04:15:24.370Z,100017.31
2022-09-22T04:16:21.464Z,100010.34
2022-09-22T04:17:20.701Z,100014.69
2022-09-22T04:18:17.673Z,100013.88
2022-09-22T04:19:15.641Z,100016.50
2022-09-22T04:20:12.532Z,100007.78
2022-09-22T04:21:09.777Z,99999.88
2022-09-22T04:22:06.732Z,100007.75
2022-09-22T04:23:03.641Z,100012.97
2022-09-22T04:24:00.973Z,100018.22
2022-09-22T04:24:57.911Z,100015.56
2022-09-22T04:25:55.134Z,100011.16
2022-09-22T04:27:18.030Z,100012.09
2022-09-22T04:28:09.635Z,100006.78
2022-09-22T04:29:06.591Z,100011.16
2022-09-22T04:30:05.967Z,100018.13
2022-09-22T04:31:02.981Z,100013.72
2022-09-22T04:32:00.003Z,100011.00
2022-09-22T04:32:56.875Z,100020.69
2022-09-22T04:33:53.931Z,100018.94
2022-09-22T04:34:51.147Z,100011.88
2022-09-22T04:35:49.823Z,100010.97
2022-09-22T04:36:46.802Z,100019.75
2022-09-22T04:37:43.689Z,100020.59
2022-09-22T04:38:40.809Z,100020.56
2022-09-22T04:39:38.021Z,100017.94
2022-09-22T04:40:37.982Z,100016.16
2022-09-22T04:41:35.024Z,100015.25
2022-09-22T04:42:31.903Z,100016.13
2022-09-22T04:43:28.924Z,100016.09
2022-09-22T04:44:25.828Z,100010.84
2022-09-22T04:45:23.040Z,100019.59
2022-09-22T04:46:20.098Z,100008.22
2022-09-22T04:47:20.056Z,100016.09
2022-09-22T04:48:17.078Z,100023.06
2022-09-22T04:49:14.301Z,100018.66
2022-09-22T04:50:11.275Z,100010.75
2022-09-22T04:51:08.630Z,100017.72
2022-09-22T04:52:05.682Z,100017.69
2022-09-22T04:53:02.717Z,100010.69
2022-09-22T04:53:59.592Z,100017.66
2022-09-22T04:54:56.550Z,100016.72
2022-09-22T04:55:53.630Z,100012.38
2022-09-22T04:56:51.986Z,100015.81
2022-09-22T04:57:53.153Z,100017.56
2022-09-22T04:58:50.136Z,100017.50
2022-09-22T04:59:53.763Z,100013.13
2022-09-22T05:00:50.941Z,100009.63
2022-09-22T05:01:47.992Z,100008.75
2022-09-22T05:02:45.096Z,100008.75
2022-09-22T05:03:41.967Z,100010.50
2022-09-22T05:04:38.948Z,100000.84
2022-09-22T05:05:36.173Z,100010.44
2022-09-22T05:06:33.019Z,100005.16
2022-09-22T05:07:30.040Z,100006.03
2022-09-22T05:08:26.993Z,100009.53
2022-09-22T05:09:24.085Z,100010.38
2022-09-22T05:10:27.424Z,100005.13
2022-09-22T05:11:24.357Z,100012.06
2022-09-22T05:12:21.382Z,100019.03
2022-09-22T05:13:18.384Z,100009.44
2022-09-22T05:14:15.847Z,100014.69
2022-09-22T05:15:14.227Z,100019.91
2022-09-22T05:16:11.148Z,100016.38
2022-09-22T05:17:08.260Z,100012.03
2022-09-22T05:18:05.668Z,100014.66
2022-09-22T05:19:02.674Z,100013.81
2022-09-22T05:20:01.771Z,100016.38
2022-09-22T05:20:59.739Z,100013.81
2022-09-22T05:21:56.655Z,100016.50
2022-09-22T05:22:56.553Z,100019.09
2022-09-22T05:23:55.364Z,100019.13
2022-09-22T05:24:52.270Z,100018.28
2022-09-22T05:25:49.271Z,100016.56
2022-09-22T05:26:46.382Z,100028.81
2022-09-22T05:27:50.634Z,100021.00
2022-09-22T05:28:47.605Z,100017.50
2022-09-22T05:29:44.541Z,100016.69
2022-09-22T05:30:43.625Z,100023.69
2022-09-22T05:31:40.502Z,100018.47
2022-09-22T05:32:37.517Z,100016.69
2022-09-22T05:33:34.420Z,100021.03
2022-09-22T05:34:31.270Z,100025.47
2022-09-22T05:35:30.781Z,100019.34
2022-09-22T05:36:32.887Z,100020.22
2022-09-22T05:37:29.860Z,100018.56
2022-09-22T05:38:26.766Z,100032.56
2022-09-22T05:39:23.795Z,100030.81
2022-09-22T05:40:20.843Z,100032.59
2022-09-22T05:41:17.824Z,100026.44
2022-09-22T05:42:14.725Z,100035.19
2022-09-22T05:43:11.633Z,100029.09
2022-09-22T05:44:08.652Z,100036.97
2022-09-22T05:45:06.103Z,100030.84
2022-09-22T05:46:03.148Z,100035.31
2022-09-22T05:47:01.353Z,100042.31
2022-09-22T05:47:58.368Z,100041.47
2022-09-22T05:48:55.318Z,100036.28
2022-09-22T05:49:52.202Z,100034.56
2022-09-22T05:50:49.046Z,100034.59
2022-09-22T05:51:46.841Z,100039.81
2022-09-22T05:55:08.119Z,100036.44
2022-09-22T05:56:12.798Z,100027.72
2022-09-22T05:57:09.769Z,100037.41
2022-09-22T05:58:06.810Z,100032.16
2022-09-22T05:59:03.732Z,100029.53
2022-09-22T06:00:00.612Z,100030.47
2022-09-22T06:00:58.548Z,100027.84
2022-09-22T06:01:59.533Z,100028.78
2022-09-22T06:02:57.321Z,100034.06
2022-09-22T06:03:54.454Z,100032.34
2022-09-22T06:04:54.105Z,100028.00
2022-09-22T06:05:55.384Z,100025.41
2022-09-22T06:06:52.482Z,100026.34
2022-09-22T06:07:56.681Z,100027.28
2022-09-22T06:08:53.667Z,100033.41
2022-09-22T06:09:50.670Z,100025.56
2022-09-22T06:10:51.153Z,100025.63
2022-09-22T06:11:51.088Z,100032.66
2022-09-22T06:12:48.554Z,100030.91
2022-09-22T06:13:46.092Z,100027.44
2022-09-22T06:14:43.583Z,100025.78
2022-09-22T06:15:42.258Z,100020.53
2022-09-22T06:16:39.187Z,100031.09
2022-09-22T06:17:36.126Z,100025.88
2022-09-22T06:18:34.230Z,100023.31
2022-09-22T06:20:36.477Z,100023.34
2022-09-22T06:21:41.177Z,100034.81
2022-09-22T06:22:47.484Z,100024.31
2022-09-22T06:23:44.456Z,100032.25
2022-09-22T06:24:42.153Z,100034.03
2022-09-22T06:25:39.111Z,100030.56
2022-09-22T06:26:35.972Z,100030.59
2022-09-22T06:27:33.255Z,100034.09
2022-09-22T06:28:33.447Z,100028.03
2022-09-22T06:29:34.985Z,100029.78
2022-09-22T06:30:37.439Z,100033.34
2022-09-22T06:31:40.330Z,100024.59
2022-09-22T06:32:39.473Z,100030.75
2022-09-22T06:33:37.957Z,100030.75
2022-09-22T06:34:37.681Z,100041.28
2022-09-22T06:35:57.196Z,100036.97
2022-09-22T06:37:09.156Z,100030.84
2022-09-22T06:38:06.477Z,100034.38
2022-09-22T06:39:06.711Z,100044.94
2022-09-22T06:40:04.178Z,100035.31
2022-09-22T06:41:03.123Z,100038.84
2022-09-22T06:42:01.347Z,100037.13
2022-09-22T06:43:07.726Z,100031.88
2022-09-22T06:44:05.779Z,100033.69
2022-09-22T06:45:04.747Z,100028.44
2022-09-22T06:46:04.165Z,100035.47
2022-09-22T06:47:05.566Z,100017.91
2022-09-22T06:48:07.564Z,100036.38
2022-09-22T06:49:06.902Z,100025.88
2022-09-22T06:50:05.777Z,100032.03
2022-09-22T06:51:03.790Z,100026.78
2022-09-22T06:52:00.803Z,100025.94
2022-09-22T06:53:01.387Z,100019.78
2022-09-22T06:53:58.897Z,100034.75
2022-09-22T06:54:58.909Z,100032.97
2022-09-22T06:55:55.839Z,100030.34
2022-09-22T07:20:54.434Z,100023.97
2022-09-22T07:21:51.604Z,100026.59
2022-09-22T07:23:01.050Z,100028.31
2022-09-22T07:23:58.171Z,100029.16
2022-09-22T07:24:56.862Z,100023.03
2022-09-22T07:26:02.187Z,100030.00
2022-09-22T07:27:04.958Z,100012.38
2022-09-22T07:28:07.845Z,100022.88
2022-09-22T08:05:46.405Z,99985.03
2022-09-22T08:07:53.099Z,100001.47
2022-09-22T08:13:37.549Z,99992.22
2022-09-22T08:15:51.715Z,99994.72
2022-09-22T08:16:56.070Z,99995.47
2022-09-22T08:23:05.852Z,99994.97
2022-09-22T08:45:24.820Z,99988.06
2022-09-22T08:46:28.896Z,99993.03
2022-09-22T08:47:49.513Z,99995.31
2022-09-22T08:49:05.026Z,99994.88
2022-09-22T08:50:20.730Z,99990.06
2022-09-22T08:51:43.079Z,99996.53
2022-09-22T08:52:50.912Z,99992.94
2022-09-22T08:53:48.772Z,99995.75
2022-09-22T08:54:46.206Z,99988.84
2022-09-22T08:55:44.537Z,99989.19
2022-09-22T08:56:46.668Z,99987.84
2022-09-22T08:57:49.524Z,99983.81
2022-09-22T08:59:14.026Z,99990.91
2022-09-22T09:00:20.327Z,99984.47
2022-09-22T09:01:30.554Z,99991.69
2022-09-22T09:02:46.321Z,99984.38
2022-09-22T09:04:00.505Z,99988.53
2022-09-22T09:05:23.130Z,99990.00
2022-09-22T09:06:44.395Z,99981.56
2022-09-22T09:08:00.239Z,99995.41
2022-09-22T09:09:27.607Z,99990.19
2022-09-22T09:10:36.588Z,99990.00
2022-09-22T09:12:00.066Z,99991.53
2022-09-22T09:13:22.708Z,99992.06
2022-09-22T09:14:41.401Z,99990.00
2022-09-22T09:16:09.231Z,99987.69
2022-09-22T09:17:19.695Z,99981.22
2022-09-22T09:18:21.042Z,99989.25
2022-09-22T09:19:20.414Z,99978.31
2022-09-22T09:20:28.397Z,99981.13
2022-09-22T09:21:25.345Z,99979.06
2022-09-22T09:22:27.300Z,99984.38
2022-09-22T09:25:21.955Z,99976.91
2022-09-22T09:26:13.760Z,99974.72
2022-09-22T09:27:14.633Z,99982.03
2022-09-22T09:28:45.948Z,99981.53
2022-09-22T09:30:05.958Z,99975.38
2022-09-22T09:31:08.773Z,99981.28
2022-09-22T09:32:08.441Z,99979.03
2022-09-22T09:33:11.668Z,99978.78
2022-09-22T09:34:12.321Z,99976.81
2022-09-22T09:35:32.410Z,99960.91
2022-09-22T09:36:31.388Z,99967.66
2022-09-22T09:37:28.750Z,99960.16
2022-09-22T09:38:27.426Z,99967.75
2022-09-22T09:39:30.205Z,99957.34
2022-09-22T09:40:28.103Z,99963.44
2022-09-22T09:41:31.707Z,99958.59
2022-09-22T09:42:31.492Z,99961.97
2022-09-22T09:43:28.740Z,99951.66
2022-09-22T09:44:29.566Z,99958.31
2022-09-22T09:45:29.569Z,99959.84
2022-09-22T09:46:49.149Z,99956.66
2022-09-22T09:48:29.180Z,99956.38
2022-09-22T09:49:26.205Z,99955.78
2022-09-22T09:50:25.487Z,99956.25
2022-09-22T09:51:26.135Z,99957.75
2022-09-22T09:52:25.991Z,99952.03
2022-09-22T09:53:29.620Z,99957.56
2022-09-22T09:54:27.659Z,99955.31
2022-09-22T09:55:27.824Z,99957.03
2022-09-22T09:56:26.612Z,99949.97
2022-09-22T09:57:27.895Z,99953.66
2022-09-22T09:58:43.287Z,99944.88
2022-09-22T10:00:00.060Z,99948.31
2022-09-22T10:00:58.039Z,99947.13
2022-09-22T10:01:55.135Z,99949.41
2022-09-22T10:03:03.384Z,99941.56
2022-09-22T10:04:00.528Z,99940.59
2022-09-22T10:05:00.100Z,99945.84
2022-09-22T10:06:09.146Z,99941.66
2022-09-22T10:07:18.050Z,99933.31
2022-09-22T10:08:21.671Z,99940.50
2022-09-22T10:09:32.860Z,99941.59
2022-09-22T10:10:29.658Z,99929.88
2022-09-22T10:11:31.336Z,99934.28
2022-09-22T10:12:34.501Z,99930.94
2022-09-22T10:13:33.608Z,99932.44
2022-09-22T10:14:32.933Z,99936.38
2022-09-22T10:15:30.130Z,99938.72
2022-09-22T10:16:28.814Z,99937.50
2022-09-22T10:17:49.458Z,99934.16
2022-09-22T10:19:20.116Z,99934.25
2022-09-22T10:20:31.516Z,99934.84
2022-09-22T10:21:29.421Z,99936.47
2022-09-22T10:22:28.603Z,99935.69
2022-09-22T10:23:27.559Z,99926.66
2022-09-22T10:24:38.261Z,99925.84
2022-09-22T10:25:34.961Z,99929.19
2022-09-22T10:26:32.765Z,99938.41
2022-09-22T10:27:32.971Z,99930.22
2022-09-22T10:28:29.884Z,99926.47
2022-09-22T10:29:32.238Z,99928.97
2022-09-22T10:30:37.120Z,99923.63
2022-09-22T10:31:35.615Z,99929.22
2022-09-22T10:32:32.403Z,99929.09
2022-09-22T10:33:29.384Z,99923.25
2022-09-22T10:34:47.462Z,99912.09
2022-09-22T10:36:07.850Z,99915.13
2022-09-22T10:37:13.477Z,99921.91
2022-09-22T10:38:23.804Z,99922.00
2022-09-22T10:39:20.575Z,99916.63
2022-09-22T10:40:17.469Z,99913.31
2022-09-22T10:41:19.331Z,99914.91
2022-09-22T10:42:37.131Z,99911.88
2022-09-22T10:43:48.918Z,99916.16
2022-09-22T10:44:49.133Z,99912.34
2022-09-22T10:46:17.197Z,99905.88
2022-09-22T10:47:27.290Z,99902.31
2022-09-22T10:48:34.062Z,99902.69
2022-09-22T10:49:51.100Z,99914.38
2022-09-22T10:50:58.180Z,99912.28
2022-09-22T10:52:15.927Z,99909.88
2022-09-22T10:53:49.708Z,99914.38
2022-09-22T10:54:58.851Z,99904.91
2022-09-22T10:56:22.435Z,99905.41
2022-09-22T10:57:39.138Z,99912.38
2022-09-22T10:58:54.459Z,99911.53
2022-09-22T10:59:57.424Z,99910.13
2022-09-22T11:01:01.223Z,99907.16
2022-09-22T11:02:16.765Z,99906.91
2022-09-22T11:03:22.525Z,99905.97
2022-09-22T11:04:27.459Z,99906.16
2022-09-22T11:06:02.190Z,99909.97
2022-09-22T11:07:37.309Z,99902.88
2022-09-22T11:09:28.769Z,99899.34
2022-09-22T11:11:11.852Z,99893.88
2022-09-22T11:12:25.517Z,99896.69
2022-09-22T11:13:50.692Z,99888.66
2022-09-22T11:15:15.152Z,99891.63
2022-09-22T11:16:23.885Z,99894.81
2022-09-22T11:17:23.559Z,99897.00
2022-09-22T11:18:50.283Z,99895.78
2022-09-22T11:20:28.328Z,99887.66
2022-09-22T11:21:31.420Z,99887.25
2022-09-22T11:22:30.941Z,99886.84
2022-09-22T11:23:46.041Z,99874.94
2022-09-22T11:25:06.692Z,99877.72
2022-09-22T11:26:22.302Z,99886.31
2022-09-22T11:27:34.360Z,99879.47
2022-09-22T11:28:46.263Z,99871.03
2022-09-22T11:29:55.264Z,99882.25
2022-09-22T11:30:52.691Z,99877.84
2022-09-22T11:31:54.349Z,99876.75
2022-09-22T11:33:10.142Z,99878.09
2022-09-22T11:34:31.090Z,99867.59
2022-09-22T11:35:46.090Z,99872.47
2022-09-22T11:36:55.942Z,99870.13
2022-09-22T11:38:13.346Z,99874.00
2022-09-22T11:39:26.769Z,99868.31
2022-09-22T11:40:36.687Z,99866.56
2022-09-22T11:41:46.251Z,99865.13
2022-09-22T11:42:49.932Z,99867.03
2022-09-22T11:44:08.133Z,99863.53
2022-09-22T11:45:19.260Z,99866.13
2022-09-22T11:46:25.474Z,99858.91
2022-09-22T11:47:28.561Z,99860.34
2022-09-22T11:48:25.333Z,99865.56
2022-09-22T11:49:24.790Z,99852.38
2022-09-22T11:50:45.622Z,99856.69
2022-09-22T11:52:17.296Z,99853.81
2022-09-22T11:53:30.269Z,99850.22
2022-09-22T11:54:47.472Z,99851.69
2022-09-22T11:55:57.246Z,99848.41
2022-09-22T11:56:59.442Z,99857.00
2022-09-22T11:58:00.944Z,99853.66
2022-09-22T11:58:59.199Z,99855.63
2022-09-22T11:59:59.617Z,99851.78
2022-09-22T12:01:07.498Z,99844.63
2022-09-22T12:02:31.394Z,99841.81
2022-09-22T12:03:33.083Z,99851.50
2022-09-22T12:04:40.205Z,99838.47
2022-09-22T12:05:58.747Z,99838.34
2022-09-22T12:06:57.717Z,99840.00
2022-09-22T12:08:02.191Z,99843.91
2022-09-22T12:09:04.639Z,99838.44
2022-09-22T12:10:03.836Z,99838.13
2022-09-22T12:11:00.833Z,99836.44
2022-09-22T12:11:57.754Z,99840.88
2022-09-22T12:12:56.818Z,99836.59
2022-09-22T12:13:53.898Z,99835.66
2022-09-22T12:14:59.852Z,99830.44
2022-09-22T12:15:59.202Z,99826.84
2022-09-22T12:17:06.013Z,99829.69
2022-09-22T12:18:36.535Z,99821.91
2022-09-22T12:20:05.604Z,99825.88
2022-09-22T12:21:19.812Z,99828.22
2022-09-22T12:22:19.183Z,99834.69
2022-09-22T12:23:15.972Z,99824.69
2022-09-22T12:24:13.029Z,99827.97
2022-09-22T12:25:21.187Z,99822.03
2022-09-22T12:26:33.793Z,99823.13
2022-09-22T12:27:30.641Z,99813.34
2022-09-22T12:28:28.614Z,99816.25
2022-09-22T12:29:27.925Z,99815.44
2022-09-22T12:30:24.818Z,99830.25
2022-09-22T12:31:22.189Z,99818.56
2022-09-22T12:32:39.478Z,99811.94
2022-09-22T12:33:36.925Z,99819.56
2022-09-22T12:34:40.205Z,99820.19
2022-09-22T12:35:37.195Z,99811.53
2022-09-22T12:36:40.099Z,99806.81
2022-09-22T12:37:38.706Z,99805.94
2022-09-22T12:38:35.565Z,99808.75
2022-09-22T12:39:32.327Z,99803.28
2022-09-22T12:40:30.898Z,99809.44
2022-09-22T12:41:27.853Z,99809.59
2022-09-22T12:42:37.148Z,99802.72
2022-09-22T12:43:37.737Z,99798.75
2022-09-22T12:44:38.345Z,99799.09
2022-09-22T12:45:36.299Z,99795.38
2022-09-22T12:46:33.079Z,99799.91
2022-09-22T12:47:40.872Z,99791.75
2022-09-22T12:48:37.740Z,99805.19
2022-09-22T12:49:34.551Z,99801.50
2022-09-22T12:50:41.000Z,99805.59
2022-09-22T12:51:37.724Z,99804.06
2022-09-22T12:53:02.681Z,99797.91
2022-09-22T12:54:28.809Z,99794.63
2022-09-22T12:55:28.247Z,99796.34
2022-09-22T12:56:45.595Z,99794.13
2022-09-22T12:58:01.482Z,99789.63
2022-09-22T12:58:58.441Z,99796.69
2022-09-22T12:59:57.938Z,99796.28
2022-09-22T13:00:56.452Z,99803.19
2022-09-22T13:02:17.574Z,99799.59
2022-09-22T13:03:26.766Z,99800.47
2022-09-22T13:04:23.791Z,99808.63
2022-09-22T13:05:26.498Z,99788.91
2022-09-22T13:06:23.521Z,99792.63
2022-09-22T13:07:36.949Z,99794.22
2022-09-22T13:08:33.525Z,99789.66
2022-09-22T13:09:30.621Z,99793.03
2022-09-22T13:10:27.455Z,99786.59
2022-09-22T13:12:01.361Z,99792.59
2022-09-22T13:13:06.849Z,99787.38
2022-09-22T13:14:03.851Z,99788.22
2022-09-22T13:15:06.504Z,99785.56
2022-09-22T13:16:25.776Z,99777.66
2022-09-22T13:17:45.738Z,99787.63
2022-09-22T13:18:45.800Z,99780.66
2022-09-22T13:19:55.171Z,99781.19
2022-09-22T13:20:51.937Z,99783.59
2022-09-22T13:21:48.803Z,99779.72
2022-09-22T13:22:45.670Z,99775.44
2022-09-22T13:23:51.090Z,99766.91
2022-09-22T13:24:48.103Z,99773.28
2022-09-22T13:25:44.838Z,99775.34
2022-09-22T13:26:41.941Z,99772.91
2022-09-22T13:27:38.825Z,99776.94
2022-09-22T13:28:37.614Z,99773.69
2022-09-22T13:29:34.544Z,99772.44
2022-09-22T13:30:32.450Z,99771.66
2022-09-22T13:31:54.386Z,99778.63
2022-09-22T13:32:51.295Z,99770.38
2022-09-22T13:33:48.088Z,99776.59
2022-09-22T13:34:45.219Z,99776.00
2022-09-22T13:35:42.328Z,99769.06
2022-09-22T13:36:38.991Z,99771.06
2022-09-22T13:37:36.205Z,99762.13
2022-09-22T13:38:36.255Z,99760.50
2022-09-22T13:39:35.041Z,99753.16
2022-09-22T13:40:35.001Z,99760.22
2022-09-22T13:41:34.004Z,99763.00
2022-09-22T13:42:33.457Z,99761.69
2022-09-22T13:43:34.483Z,99761.03
2022-09-22T13:44:31.906Z,99758.13
2022-09-22T13:45:30.292Z,99755.19
2022-09-22T13:46:41.156Z,99762.91
2022-09-22T13:47:39.633Z,99758.19